Airfield :
LOGIN :

Register | Disclaimer

   EN    FR    IT 

 










Legend :    VFR   Marginal VFR   IFR   Intensive IFR   Very Intensive IFR
Visi :
Ceiling :
>= 8 km
>= 3000ft
5 to 8 km
1000 to 3000 ft
1500m to 5 km
500 to 1000 ft
800 to 1500m
200 to 500 ft
< 800m
< 200 ft
Symbols :   Thunderstorms  Fog  Heavy snow  Heavy precipitations  Wind > 20 kt
SIGMETs :     Misc.  Thunderstorms  Icing  Turbulence  Mountain Waves  Volcanic Ashes






- Airport Elevation : 306 ft
- IATA code : EMA


EGNX - Nottingham East Midlands

CURRENT METAR :
  • 190450Z 25013KT 6000 RA BKN006 10/09 Q1001

EXPIRED METARs :
  • 190420Z 24015KT 7000 RA BKN006 OVC014 09/09 Q1000
  • 190350Z 24014KT 9999 RA FEW005 SCT010 09/09 Q1000
  • 190250Z 24007KT 6000 RA OVC006 09/08 Q1001
  • 190220Z 22008KT 7000 RA BKN006 OVC040 09/08 Q1002
  • 190150Z 21011KT 7000 RA BKN006 BKN040 09/08 Q1003

TAF TAF EGNX
Valid from the 19 at 00:00 until the 20 at 00:00 UTC


182255Z 1900/1924 21015KT 9999 BKN015
TEMPO 1900/1905 7000 -RADZ BKN009
PROB40
TEMPO 1900/1904 4000 RADZ BKN004
BECMG 1902/1905 25018G32KT
PROB30
TEMPO 1905/1914 -RA BKN012
TEMPO 1914/1924 7000 -RA BKN014
PROB30
TEMPO 1917/1918 4000 RADZ
ATIS : +44 1332 852 852 (ext 3201)



MET'MAP, your aeronautical weather chart ! - Copyright ORBIFLY December 2007 - Disclaimer

ORBIFLY MET'MAP TEAM :

Programming & Development : Alexandra Zaïnal
Concept & original design : Baudouin d'Aumeries
Assistance for programming : Marc-Olivier Méhu
Technical & hardware support : Manuel Goepfert

Contact : metmap@orbifly.com




SOURCES & CREDITS :

   NOAA